createdAt,value
2018-03-24T00:00:19.440Z,-0.20
2018-03-24T00:02:45.620Z,-0.20
2018-03-24T00:05:11.824Z,-0.20
2018-03-24T00:07:38.035Z,-0.20
2018-03-24T00:10:04.992Z,-0.20
2018-03-24T00:12:31.191Z,-0.30
2018-03-24T00:14:57.392Z,-0.20
2018-03-24T00:17:23.599Z,-0.20
2018-03-24T00:19:49.775Z,-0.10
2018-03-24T00:22:15.995Z,-0.10
2018-03-24T00:24:42.170Z,-0.20
2018-03-24T00:27:09.087Z,-0.20
2018-03-24T00:29:35.310Z,-0.20
2018-03-24T00:32:01.482Z,-0.20
2018-03-24T00:34:27.702Z,-0.10
2018-03-24T00:36:53.904Z,0.00
2018-03-24T00:39:20.082Z,0.00
2018-03-24T00:41:46.292Z,-0.10
2018-03-24T00:44:12.476Z,-0.10
2018-03-24T00:46:38.676Z,-0.10
2018-03-24T00:49:04.856Z,0.00
2018-03-24T00:51:31.083Z,0.00
2018-03-24T00:53:57.264Z,0.10
2018-03-24T00:56:23.484Z,0.00
2018-03-24T00:58:49.707Z,0.00
2018-03-24T01:01:15.909Z,0.00
2018-03-24T01:03:42.106Z,0.10
2018-03-24T01:06:08.315Z,0.00
2018-03-24T01:08:34.507Z,-0.10
2018-03-24T01:11:00.723Z,0.00
2018-03-24T01:13:27.643Z,0.00
2018-03-24T01:15:54.618Z,-0.20
2018-03-24T01:18:21.524Z,-0.20
2018-03-24T01:20:47.702Z,-0.20
2018-03-24T01:23:14.635Z,-0.10
2018-03-24T01:25:41.554Z,-0.10
2018-03-24T01:28:07.759Z,-0.10
2018-03-24T01:30:33.963Z,-0.10
2018-03-24T01:33:00.920Z,0.00
2018-03-24T01:35:27.107Z,-0.10
2018-03-24T01:37:53.323Z,-0.10
2018-03-24T01:40:19.495Z,0.10
2018-03-24T01:42:45.669Z,0.10
2018-03-24T01:45:11.887Z,0.10
2018-03-24T01:47:38.056Z,0.10
2018-03-24T01:50:04.271Z,0.10
2018-03-24T01:52:30.438Z,0.20
2018-03-24T01:54:56.637Z,0.30
2018-03-24T01:57:22.812Z,0.20
2018-03-24T01:59:49.055Z,0.30
2018-03-24T02:02:15.242Z,0.10
2018-03-24T02:04:41.448Z,0.20
2018-03-24T02:07:08.400Z,0.10
2018-03-24T02:09:35.311Z,0.00
2018-03-24T02:12:01.556Z,0.00
2018-03-24T02:14:27.731Z,0.10
2018-03-24T02:16:53.927Z,0.10
2018-03-24T02:19:20.164Z,0.10
2018-03-24T02:21:47.100Z,0.10
2018-03-24T02:24:13.349Z,0.10
2018-03-24T02:26:39.514Z,0.10
2018-03-24T02:29:05.706Z,0.00
2018-03-24T02:31:32.671Z,0.10
2018-03-24T02:33:59.579Z,0.10
2018-03-24T02:36:25.787Z,0.00
2018-03-24T02:38:51.987Z,0.00
2018-03-24T02:41:18.910Z,0.10
2018-03-24T02:43:46.075Z,0.00
2018-03-24T02:46:12.248Z,0.00
2018-03-24T02:48:38.430Z,-0.10
2018-03-24T02:51:04.627Z,0.00
2018-03-24T02:53:30.802Z,0.10
2018-03-24T02:55:57.156Z,0.00
2018-03-24T02:58:24.055Z,0.00
2018-03-24T03:00:50.217Z,0.00
2018-03-24T03:03:23.482Z,0.00
2018-03-24T03:05:50.140Z,0.00
2018-03-24T03:08:16.376Z,0.00
2018-03-24T03:10:42.575Z,-0.10
2018-03-24T03:13:08.777Z,0.00
2018-03-24T03:15:35.772Z,-0.10
2018-03-24T03:18:01.955Z,-0.20
2018-03-24T03:20:28.856Z,-0.10
2018-03-24T03:22:55.050Z,-0.20
2018-03-24T03:25:21.222Z,0.00
2018-03-24T03:27:47.476Z,0.00
2018-03-24T03:30:19.764Z,0.00
2018-03-24T03:32:45.980Z,-0.10
2018-03-24T03:35:12.223Z,-0.20
2018-03-24T03:37:38.397Z,-0.20
2018-03-24T03:40:04.583Z,-0.20
2018-03-24T03:42:30.800Z,-0.10
2018-03-24T03:44:56.967Z,-0.10
2018-03-24T03:47:23.914Z,-0.10
2018-03-24T03:49:50.844Z,-0.10
2018-03-24T03:52:17.006Z,-0.20
2018-03-24T03:54:43.933Z,-0.20
2018-03-24T03:57:10.111Z,-0.30
2018-03-24T03:59:36.318Z,-0.30
2018-03-24T04:02:03.304Z,-0.20
2018-03-24T04:04:29.479Z,-0.30
2018-03-24T04:06:55.672Z,-0.20
2018-03-24T04:09:21.849Z,-0.20
2018-03-24T04:11:48.055Z,-0.20
2018-03-24T04:14:14.291Z,-0.20
2018-03-24T04:16:40.484Z,-0.20
2018-03-24T04:19:06.692Z,-0.20
2018-03-24T04:24:08.271Z,-0.10
2018-03-24T04:26:35.225Z,-0.10
2018-03-24T04:29:02.135Z,-0.10
2018-03-24T04:31:28.407Z,-0.10
2018-03-24T04:33:55.322Z,-0.10
2018-03-24T04:36:21.491Z,-0.20
2018-03-24T04:38:48.463Z,0.00
2018-03-24T04:41:14.638Z,-0.10
2018-03-24T04:43:40.813Z,0.00
2018-03-24T04:46:07.751Z,-0.10
2018-03-24T04:48:34.664Z,0.00
2018-03-24T04:51:00.916Z,-0.10
2018-03-24T04:53:27.082Z,0.00
2018-03-24T04:55:53.999Z,-0.10
2018-03-24T04:58:20.211Z,-0.10
2018-03-24T05:00:46.390Z,-0.20
2018-03-24T05:03:12.602Z,-0.20
2018-03-24T05:05:38.798Z,-0.10
2018-03-24T05:08:04.991Z,-0.10
2018-03-24T05:10:31.942Z,-0.10
2018-03-24T05:12:58.860Z,-0.10
2018-03-24T05:15:25.047Z,-0.10
2018-03-24T05:17:51.263Z,-0.10
2018-03-24T05:20:17.432Z,0.00
2018-03-24T05:22:43.644Z,0.00
2018-03-24T05:25:09.804Z,0.10
2018-03-24T05:27:35.958Z,0.10
2018-03-24T05:30:02.194Z,0.00
2018-03-24T05:32:28.377Z,0.10
2018-03-24T05:34:54.555Z,0.10
2018-03-24T05:37:20.790Z,0.10
2018-03-24T05:39:47.715Z,0.20
2018-03-24T05:42:13.879Z,0.10
2018-03-24T05:44:40.341Z,0.20
2018-03-24T05:47:06.526Z,0.30
2018-03-24T05:49:32.694Z,0.30
2018-03-24T05:51:59.633Z,0.20
2018-03-24T05:54:25.793Z,0.10
2018-03-24T05:56:52.012Z,0.30
2018-03-24T05:59:18.951Z,0.30
2018-03-24T06:01:45.880Z,0.20
2018-03-24T06:04:12.076Z,0.20
2018-03-24T06:06:38.307Z,0.30
2018-03-24T06:09:04.588Z,0.30
2018-03-24T06:11:30.799Z,0.40
2018-03-24T06:13:57.040Z,0.40
2018-03-24T06:16:23.351Z,0.40
2018-03-24T06:18:49.543Z,0.40
2018-03-24T06:21:16.595Z,0.60
2018-03-24T06:23:42.786Z,0.50
2018-03-24T06:26:08.964Z,0.50
2018-03-24T06:28:35.908Z,0.50
2018-03-24T06:31:03.666Z,0.60
2018-03-24T06:33:29.875Z,0.50
2018-03-24T06:35:56.122Z,0.60
2018-03-24T06:38:22.301Z,0.60
2018-03-24T06:40:48.472Z,0.60
2018-03-24T06:43:14.721Z,0.70
2018-03-24T06:45:40.912Z,0.70
2018-03-24T06:48:07.095Z,0.70
2018-03-24T06:50:33.296Z,0.70
2018-03-24T06:52:59.484Z,0.60
2018-03-24T06:55:26.462Z,0.80
2018-03-24T06:57:52.643Z,0.70
2018-03-24T07:00:18.856Z,0.70
2018-03-24T07:02:45.058Z,0.80
2018-03-24T07:05:11.228Z,0.90
2018-03-24T07:07:37.428Z,0.90
2018-03-24T07:10:03.675Z,0.80
2018-03-24T07:12:29.911Z,0.80
2018-03-24T07:14:56.075Z,0.90
2018-03-24T07:17:22.243Z,0.80
2018-03-24T07:19:48.431Z,0.80
2018-03-24T07:22:14.630Z,0.90
2018-03-24T07:24:40.812Z,0.90
2018-03-24T07:27:06.984Z,1.10
2018-03-24T07:29:33.181Z,1.10
2018-03-24T07:31:59.343Z,1.20
2018-03-24T07:34:25.533Z,1.10
2018-03-24T07:36:51.767Z,0.90
2018-03-24T07:39:17.946Z,1.00
2018-03-24T07:41:44.106Z,1.00
2018-03-24T07:44:10.324Z,1.10
2018-03-24T07:46:36.489Z,1.20
2018-03-24T07:49:02.748Z,1.20
2018-03-24T07:51:29.686Z,1.30
2018-03-24T07:53:55.867Z,1.20
2018-03-24T07:56:22.088Z,1.20
2018-03-24T07:58:48.260Z,1.20
2018-03-24T08:01:14.498Z,1.20
2018-03-24T08:03:40.675Z,1.20
2018-03-24T08:06:07.636Z,1.20
2018-03-24T08:08:33.801Z,1.20
2018-03-24T08:11:00.032Z,1.20
2018-03-24T08:13:26.200Z,1.20
2018-03-24T08:15:52.370Z,1.20
2018-03-24T08:18:18.782Z,1.20
2018-03-24T08:20:45.686Z,1.30
2018-03-24T08:23:11.862Z,1.20
2018-03-24T08:25:38.791Z,1.40
2018-03-24T08:28:04.972Z,1.30
2018-03-24T08:30:31.644Z,1.30
2018-03-24T08:32:57.904Z,1.40
2018-03-24T08:35:24.112Z,1.50
2018-03-24T08:37:50.296Z,1.60
2018-03-24T08:40:17.302Z,1.60
2018-03-24T08:42:43.546Z,1.60
2018-03-24T08:45:09.783Z,1.50
2018-03-24T08:47:35.954Z,1.60
2018-03-24T08:50:02.148Z,1.60
2018-03-24T08:52:28.388Z,1.50
2018-03-24T08:54:54.563Z,1.60
2018-03-24T08:57:20.730Z,1.70
2018-03-24T08:59:48.898Z,1.80
2018-03-24T09:02:15.059Z,1.80
2018-03-24T09:04:41.240Z,1.80
2018-03-24T09:07:07.542Z,1.90
2018-03-24T09:09:34.471Z,2.10
2018-03-24T09:12:00.664Z,2.00
2018-03-24T09:14:26.893Z,2.10
2018-03-24T09:16:53.057Z,2.10
2018-03-24T09:19:19.240Z,2.20
2018-03-24T09:21:46.212Z,2.30
2018-03-24T09:24:12.371Z,2.20
2018-03-24T09:26:38.546Z,2.20
2018-03-24T09:29:05.516Z,2.20
2018-03-24T09:31:31.699Z,2.10
2018-03-24T09:33:57.901Z,2.10
2018-03-24T09:36:24.116Z,2.10
2018-03-24T09:38:50.296Z,2.20
2018-03-24T09:41:16.471Z,2.20
2018-03-24T09:43:42.683Z,2.30
2018-03-24T09:46:09.586Z,2.40
2018-03-24T09:48:35.775Z,2.30
2018-03-24T09:51:02.731Z,2.40
2018-03-24T09:53:28.912Z,2.40
2018-03-24T09:55:55.104Z,2.60
2018-03-24T09:58:21.272Z,2.90
2018-03-24T10:00:47.471Z,3.00
2018-03-24T10:03:13.659Z,3.00
2018-03-24T10:05:39.829Z,2.80
2018-03-24T10:08:06.067Z,2.80
2018-03-24T10:10:32.235Z,2.90
2018-03-24T10:12:58.410Z,2.80
2018-03-24T10:15:25.384Z,2.80
2018-03-24T10:17:51.556Z,2.70
2018-03-24T10:20:17.730Z,2.70
2018-03-24T10:22:56.987Z,2.80
2018-03-24T10:25:23.146Z,2.80
2018-03-24T10:27:49.624Z,2.80
2018-03-24T10:30:15.819Z,2.70
2018-03-24T10:32:41.985Z,2.80
2018-03-24T10:35:08.210Z,3.00
2018-03-24T10:37:40.457Z,3.10
2018-03-24T10:40:06.683Z,3.10
2018-03-24T10:42:32.851Z,2.90
2018-03-24T10:44:59.093Z,2.90
2018-03-24T10:47:26.030Z,2.90
2018-03-24T10:49:52.199Z,2.80
2018-03-24T10:52:18.416Z,3.00
2018-03-24T10:54:45.359Z,2.90
2018-03-24T10:57:12.275Z,2.80
2018-03-24T10:59:38.495Z,2.80
2018-03-24T11:02:04.689Z,2.90
2018-03-24T11:04:31.603Z,3.10
2018-03-24T11:06:57.817Z,3.00
2018-03-24T11:09:23.991Z,3.20
2018-03-24T11:11:50.206Z,3.20
2018-03-24T11:14:16.480Z,3.20
2018-03-24T11:16:42.671Z,3.10
2018-03-24T11:19:09.596Z,3.10
2018-03-24T11:21:35.799Z,3.10
2018-03-24T11:24:01.973Z,3.20
2018-03-24T11:26:28.185Z,3.30
2018-03-24T11:28:54.397Z,3.30
2018-03-24T11:31:20.586Z,3.60
2018-03-24T11:33:46.846Z,3.70
2018-03-24T11:36:13.774Z,3.90
2018-03-24T11:38:39.950Z,3.80
2018-03-24T11:41:06.156Z,4.00
2018-03-24T11:43:33.059Z,3.90
2018-03-24T11:45:59.287Z,3.90
2018-03-24T11:48:25.500Z,3.90
2018-03-24T11:50:51.679Z,3.80
2018-03-24T11:53:17.888Z,3.90
2018-03-24T11:55:44.135Z,4.10
2018-03-24T11:58:10.328Z,4.20
2018-03-24T12:00:36.512Z,4.20
2018-03-24T12:03:02.732Z,4.20
2018-03-24T12:05:28.956Z,4.20
2018-03-24T12:07:55.159Z,4.40
2018-03-24T12:10:21.319Z,4.50
2018-03-24T12:12:47.539Z,4.50
2018-03-24T12:15:13.719Z,4.40
2018-03-24T12:17:39.884Z,4.30
2018-03-24T12:20:06.082Z,4.20
2018-03-24T12:22:32.298Z,4.20
2018-03-24T12:24:58.539Z,4.40
2018-03-24T12:27:24.709Z,4.20
2018-03-24T12:29:51.622Z,4.00
2018-03-24T12:32:17.819Z,4.00
2018-03-24T12:34:44.094Z,4.00
2018-03-24T12:37:11.012Z,4.10
2018-03-24T12:39:37.170Z,4.20
2018-03-24T12:42:03.411Z,4.20
2018-03-24T12:44:29.579Z,4.20
2018-03-24T12:46:55.767Z,4.20
2018-03-24T12:49:21.992Z,4.20
2018-03-24T12:51:48.199Z,4.10
2018-03-24T12:54:14.367Z,4.30
2018-03-24T12:56:40.600Z,4.20
2018-03-24T12:59:06.774Z,4.10
2018-03-24T13:01:33.011Z,4.00
2018-03-24T13:03:59.186Z,4.00
2018-03-24T13:06:25.355Z,4.10
2018-03-24T13:08:52.332Z,4.00
2018-03-24T13:11:18.499Z,3.90
2018-03-24T13:13:44.645Z,3.90
2018-03-24T13:16:10.832Z,4.00
2018-03-24T13:18:36.995Z,4.20
2018-03-24T13:21:03.275Z,4.30
2018-03-24T13:23:30.197Z,4.30
2018-03-24T13:25:57.098Z,4.10
2018-03-24T13:28:23.299Z,4.10
2018-03-24T13:30:50.211Z,4.30
2018-03-24T13:33:16.367Z,4.30
2018-03-24T13:35:42.668Z,4.50
2018-03-24T13:38:08.860Z,4.40
2018-03-24T13:40:35.815Z,4.60
2018-03-24T13:43:02.020Z,4.60
2018-03-24T13:45:28.199Z,4.70
2018-03-24T13:47:54.422Z,4.80
2018-03-24T13:50:20.580Z,4.90
2018-03-24T13:52:46.758Z,4.90
2018-03-24T13:55:13.717Z,5.10
2018-03-24T13:57:40.763Z,5.30
2018-03-24T14:00:07.694Z,5.20
2018-03-24T14:02:33.862Z,5.10
2018-03-24T14:05:00.055Z,5.20
2018-03-24T14:07:26.239Z,5.30
2018-03-24T14:09:52.487Z,5.30
2018-03-24T14:12:18.732Z,5.20
2018-03-24T14:14:44.927Z,5.10
2018-03-24T14:17:11.095Z,5.10
2018-03-24T14:19:37.325Z,5.10
2018-03-24T14:22:03.502Z,5.20
2018-03-24T14:24:29.662Z,5.20
2018-03-24T14:26:55.912Z,5.20
2018-03-24T14:29:22.074Z,5.00
2018-03-24T14:31:48.251Z,5.10
2018-03-24T14:34:15.240Z,5.20
2018-03-24T14:36:41.424Z,5.10
2018-03-24T14:39:08.370Z,5.20
2018-03-24T14:41:35.322Z,5.10
2018-03-24T14:44:02.239Z,5.20
2018-03-24T14:46:28.403Z,5.20
2018-03-24T14:48:55.435Z,5.50
2018-03-24T14:51:21.615Z,5.40
2018-03-24T14:53:47.778Z,5.50
2018-03-24T14:56:14.010Z,5.30
2018-03-24T14:58:40.211Z,5.40
2018-03-24T15:01:06.423Z,5.40
2018-03-24T15:03:33.376Z,5.20
2018-03-24T15:06:00.304Z,5.20
2018-03-24T15:08:26.491Z,5.10
2018-03-24T15:10:52.738Z,5.20
2018-03-24T15:13:18.912Z,5.20
2018-03-24T15:15:45.818Z,5.00
2018-03-24T15:18:12.060Z,5.00
2018-03-24T15:20:38.231Z,5.00
2018-03-24T15:23:05.160Z,4.80
2018-03-24T15:25:32.153Z,4.70
2018-03-24T15:27:58.336Z,4.60
2018-03-24T15:30:36.731Z,4.50
2018-03-24T15:33:15.191Z,4.60
2018-03-24T15:35:54.826Z,4.60
2018-03-24T15:38:21.730Z,4.60
2018-03-24T15:40:47.919Z,4.50
2018-03-24T15:43:14.135Z,4.50
2018-03-24T15:45:40.318Z,4.50
2018-03-24T15:48:06.566Z,4.40
2018-03-24T15:50:32.746Z,4.40
2018-03-24T15:52:59.646Z,4.10
2018-03-24T15:55:25.881Z,4.10
2018-03-24T15:57:52.062Z,4.20
2018-03-24T16:00:19.075Z,4.10
2018-03-24T16:02:45.258Z,4.00
2018-03-24T16:05:11.444Z,4.10
2018-03-24T16:07:37.696Z,4.10
2018-03-24T16:10:03.904Z,4.00
2018-03-24T16:12:30.145Z,3.90
2018-03-24T16:14:56.324Z,3.90
2018-03-24T16:17:22.517Z,3.90
2018-03-24T16:19:48.723Z,3.90
2018-03-24T16:22:14.893Z,3.80
2018-03-24T16:24:41.104Z,3.90
2018-03-24T16:27:07.274Z,3.90
2018-03-24T16:29:34.222Z,3.60
2018-03-24T16:32:01.153Z,3.60
2018-03-24T16:34:27.328Z,3.50
2018-03-24T16:36:53.538Z,3.60
2018-03-24T16:39:20.534Z,3.60
2018-03-24T16:41:46.739Z,3.50
2018-03-24T16:44:12.911Z,3.60
2018-03-24T16:46:39.076Z,3.60
2018-03-24T16:49:06.032Z,3.40
2018-03-24T16:51:33.019Z,3.40
2018-03-24T16:53:59.223Z,3.40
2018-03-24T16:56:26.180Z,3.50
2018-03-24T16:58:52.745Z,3.40
2018-03-24T17:01:18.960Z,3.30
2018-03-24T17:03:45.123Z,3.20
2018-03-24T17:06:11.326Z,3.10
2018-03-24T17:08:37.491Z,3.10
2018-03-24T17:11:03.738Z,3.10
2018-03-24T17:13:29.929Z,3.00
2018-03-24T17:15:56.111Z,2.90
2018-03-24T17:18:23.903Z,2.80
2018-03-24T17:20:50.816Z,2.80
2018-03-24T17:23:17.027Z,2.70
2018-03-24T17:25:43.256Z,2.80
2018-03-24T17:28:09.430Z,2.80
2018-03-24T17:30:35.607Z,2.80
2018-03-24T17:33:01.788Z,2.70
2018-03-24T17:35:27.972Z,2.70
2018-03-24T17:37:54.406Z,2.70
2018-03-24T17:40:20.580Z,2.70
2018-03-24T17:42:46.747Z,2.80
2018-03-24T17:45:12.940Z,2.70
2018-03-24T17:47:39.154Z,2.60
2018-03-24T17:50:05.351Z,2.60
2018-03-24T17:52:32.251Z,2.60
2018-03-24T17:54:58.435Z,2.50
2018-03-24T17:57:25.415Z,2.60
2018-03-24T17:59:51.605Z,2.50
2018-03-24T18:02:18.531Z,2.60
2018-03-24T18:04:44.734Z,2.50
2018-03-24T18:07:10.914Z,2.50
2018-03-24T18:09:37.075Z,2.60
2018-03-24T18:12:04.048Z,2.70
2018-03-24T18:14:30.326Z,2.60
2018-03-24T18:16:56.527Z,2.60
2018-03-24T18:19:22.975Z,2.60
2018-03-24T18:21:49.301Z,2.70
2018-03-24T18:24:18.380Z,2.60
2018-03-24T18:26:44.587Z,2.50
2018-03-24T18:29:10.780Z,2.50
2018-03-24T18:31:36.978Z,2.50
2018-03-24T18:34:03.158Z,2.50
2018-03-24T18:36:29.374Z,2.50
2018-03-24T18:38:55.555Z,2.50
2018-03-24T18:41:22.564Z,2.40
2018-03-24T18:43:49.490Z,2.40
2018-03-24T18:46:15.678Z,2.30
2018-03-24T18:48:42.647Z,2.40
2018-03-24T18:51:09.563Z,2.50
2018-03-24T18:53:35.758Z,2.40
2018-03-24T18:56:01.969Z,2.30
2018-03-24T18:58:28.134Z,2.40
2018-03-24T19:00:54.321Z,2.40
2018-03-24T19:03:21.275Z,2.50
2018-03-24T19:05:48.187Z,2.40
2018-03-24T19:08:14.426Z,2.40
2018-03-24T19:10:40.605Z,2.50
2018-03-24T19:13:06.822Z,2.40
2018-03-24T19:15:33.739Z,2.40
2018-03-24T19:17:59.924Z,2.30
2018-03-24T19:20:26.126Z,2.30
2018-03-24T19:22:53.105Z,2.30
2018-03-24T19:25:19.279Z,2.30
2018-03-24T19:27:45.450Z,2.30
2018-03-24T19:30:12.416Z,2.30
2018-03-24T19:32:38.598Z,2.30
2018-03-24T19:35:04.967Z,2.30
2018-03-24T19:37:32.049Z,2.30
2018-03-24T19:39:58.936Z,2.30
2018-03-24T19:42:25.151Z,2.20
2018-03-24T19:44:51.336Z,2.30
2018-03-24T19:47:18.251Z,2.30
2018-03-24T19:49:44.484Z,2.20
2018-03-24T19:52:10.652Z,2.30
2018-03-24T19:54:37.591Z,2.30
2018-03-24T19:57:04.564Z,2.20
2018-03-24T19:59:30.731Z,2.10
2018-03-24T20:01:56.910Z,2.10
2018-03-24T20:04:23.950Z,2.20
2018-03-24T20:06:50.143Z,2.10
2018-03-24T20:09:16.344Z,2.10
2018-03-24T20:11:42.527Z,2.10
2018-03-24T20:14:08.736Z,2.00
2018-03-24T20:16:34.961Z,2.10
2018-03-24T20:19:01.113Z,2.00
2018-03-24T20:21:27.288Z,1.90
2018-03-24T20:23:54.247Z,1.80
2018-03-24T20:26:20.427Z,1.80
2018-03-24T20:28:46.802Z,1.80
2018-03-24T20:31:13.726Z,1.80
2018-03-24T20:33:39.918Z,1.80
2018-03-24T20:36:06.149Z,1.90
2018-03-24T20:38:32.344Z,2.00
2018-03-24T20:40:58.562Z,2.10
2018-03-24T20:43:24.752Z,2.10
2018-03-24T20:45:50.958Z,2.00
2018-03-24T20:48:17.906Z,1.90
2018-03-24T20:50:44.879Z,1.80
2018-03-24T20:53:11.096Z,1.80
2018-03-24T20:55:37.280Z,1.70
2018-03-24T20:58:03.550Z,1.70
2018-03-24T21:00:30.470Z,1.60
2018-03-24T21:02:56.674Z,1.60
2018-03-24T21:05:22.902Z,1.70
2018-03-24T21:07:49.149Z,1.70
2018-03-24T21:10:15.387Z,1.80
2018-03-24T21:12:41.607Z,1.80
2018-03-24T21:15:10.729Z,1.80
2018-03-24T21:17:36.899Z,1.90
2018-03-24T21:20:03.160Z,1.90
2018-03-24T21:22:29.339Z,1.90
2018-03-24T21:24:55.560Z,1.80
2018-03-24T21:27:21.768Z,1.80
2018-03-24T21:29:47.959Z,1.70
2018-03-24T21:32:14.934Z,1.80
2018-03-24T21:34:41.100Z,1.70
2018-03-24T21:37:07.260Z,1.70
2018-03-24T21:39:34.235Z,1.80
2018-03-24T21:42:01.168Z,1.80
2018-03-24T21:44:27.373Z,1.70
2018-03-24T21:46:53.538Z,1.80
2018-03-24T21:49:19.767Z,1.80
2018-03-24T21:51:46.730Z,1.80
2018-03-24T21:54:13.672Z,1.90
2018-03-24T21:56:40.595Z,1.90
2018-03-24T21:59:06.811Z,1.80
2018-03-24T22:01:33.018Z,1.80
2018-03-24T22:03:59.196Z,1.80
2018-03-24T22:06:25.437Z,1.80
2018-03-24T22:08:51.607Z,1.70
2018-03-24T22:11:17.780Z,1.60
2018-03-24T22:13:43.992Z,1.80
2018-03-24T22:16:10.164Z,1.70
2018-03-24T22:18:36.383Z,1.80
2018-03-24T22:21:02.590Z,1.70
2018-03-24T22:23:28.780Z,1.70
2018-03-24T22:25:55.690Z,1.80
2018-03-24T22:28:21.884Z,1.70
2018-03-24T22:30:48.055Z,1.80
2018-03-24T22:33:14.228Z,1.80
2018-03-24T22:35:40.429Z,1.70
2018-03-24T22:38:06.611Z,1.80
2018-03-24T22:40:33.538Z,1.70
2018-03-24T22:42:59.833Z,1.60
2018-03-24T22:45:25.966Z,1.70
2018-03-24T22:47:52.146Z,1.70
2018-03-24T22:50:19.086Z,1.80
2018-03-24T22:52:45.287Z,1.70
2018-03-24T22:55:11.487Z,1.80
2018-03-24T22:57:37.658Z,1.70
2018-03-24T23:00:04.679Z,1.70
2018-03-24T23:02:30.911Z,1.70
2018-03-24T23:04:57.079Z,1.70
2018-03-24T23:07:23.255Z,1.70
2018-03-24T23:09:49.510Z,1.70
2018-03-24T23:12:15.692Z,1.80
2018-03-24T23:14:41.861Z,1.80
2018-03-24T23:17:08.055Z,1.90
2018-03-24T23:19:34.242Z,2.00
2018-03-24T23:22:00.430Z,2.00
2018-03-24T23:24:26.627Z,2.00
2018-03-24T23:26:52.791Z,2.00
2018-03-24T23:29:19.021Z,2.00
2018-03-24T23:31:45.202Z,2.00
2018-03-24T23:34:11.366Z,1.90
2018-03-24T23:36:37.617Z,1.90
2018-03-24T23:39:04.739Z,1.90
2018-03-24T23:41:30.922Z,1.90
2018-03-24T23:43:57.873Z,2.00
2018-03-24T23:46:24.799Z,2.00
2018-03-24T23:48:51.025Z,2.00
2018-03-24T23:51:17.194Z,2.10
2018-03-24T23:53:44.121Z,2.20
2018-03-24T23:56:10.359Z,2.10
2018-03-24T23:58:36.524Z,2.10
